Time;durP1;ratioP1;P1;durP2;ratioP2;P2;SDS_P1;SDS_P2;PMS_P1;PMS_P2;Temp;Humidity;BMP_temperature;BMP_pressure;BME280_temperature;BME280_humidity;BME280_pressure;Samples;Min_cycle;Max_cycle;Signal;HPM_P1;HPM_P2
2021/10/05 00:01:02;;;;;;;;;;;;;;;;;;4962666;28;19913;-81
2021/10/05 00:03:28;;;;;;;;;;;;;;;;;;4977916;28;19913;-81
2021/10/05 00:05:53;;;;;;;;;;;;;;;;;;4978376;28;19921;-81
2021/10/05 00:08:20;;;;;;;;;;;;;;;;;;4961690;28;19928;-81
2021/10/05 00:10:45;;;;;;;;;;;;;;;;;;5003576;28;19967;-81
2021/10/05 00:13:11;;;;;;;;;;;;;;;;;;4997605;28;19955;-82
2021/10/05 00:15:37;;;;;;;;;;;;;;;;;;4966570;28;19929;-82
2021/10/05 00:18:06;;;;;;;;;;;;;;;;;;4993542;28;19929;-82
2021/10/05 00:20:32;;;;;;;;;;;;;;;;;;4992364;28;19918;-82
2021/10/05 00:22:58;;;;;;;;;;;;;;;;;;4993344;28;19924;-82
2021/10/05 00:25:24;;;;;;;;;;;;;;;;;;4993506;28;19964;-83
2021/10/05 00:27:49;;;;;;;;;;;;;;;;;;4993392;28;19914;-82
2021/10/05 00:30:15;;;;;;;;;;;;;;;;;;4993923;28;19918;-82
2021/10/05 00:32:40;;;;;;;;;;;;;;;;;;4993433;28;19929;-83
2021/10/05 00:35:05;;;;;;;;;;;;;;;;;;4992053;28;19925;-82
2021/10/05 00:37:32;;;;;;;;;;;;;;;;;;4974322;28;19960;-82
2021/10/05 00:39:57;;;;;;;;;;;;;;;;;;4974413;28;19922;-83
2021/10/05 00:42:23;;;;;;;;;;;;;;;;;;4990200;28;19914;-82
2021/10/05 00:44:48;;;;;;;;;;;;;;;;;;4990398;28;19964;-82
2021/10/05 00:47:14;;;;;;;;;;;;;;;;;;4974437;28;19941;-83
2021/10/05 00:49:40;;;;;;;;;;;;;;;;;;4974907;28;20285;-82
2021/10/05 00:52:05;;;;;;;;;;;;;;;;;;4974396;28;19974;-82
2021/10/05 00:54:31;;;;;;;;;;;;;;;;;;4957681;28;19975;-82
2021/10/05 00:56:56;;;;;;;;;;;;;;;;;;4986287;28;20608;-82
2021/10/05 00:59:22;;;;;;;;;;;;;;;;;;4973192;28;20335;-82
2021/10/05 01:01:48;;;;;;;;;;;;;;;;;;4992095;28;19922;-82
2021/10/05 01:04:13;;;;;;;;;;;;;;;;;;4993675;28;19914;-83
2021/10/05 01:06:46;;;;;;;;;;;;;;;;;;4993620;28;19918;-82
2021/10/05 01:09:11;;;;;;;;;;;;;;;;;;4993135;28;19941;-82
2021/10/05 01:11:36;;;;;;;;;;;;;;;;;;4995859;28;20380;-83
2021/10/05 01:14:02;;;;;;;;;;;;;;;;;;4996202;28;19913;-82
2021/10/05 01:16:27;;;;;;;;;;;;;;;;;;4980015;28;20016;-82
2021/10/05 01:18:52;;;;;;;;;;;;;;;;;;4979982;28;19913;-82
2021/10/05 01:21:18;;;;;;;;;;;;;;;;;;4996328;28;19936;-83
2021/10/05 01:23:43;;;;;;;;;;;;;;;;;;4979882;28;19996;-83
2021/10/05 01:26:08;;;;;;;;;;;;;;;;;;4996062;28;19918;-82
2021/10/05 01:28:34;;;;;;;;;;;;;;;;;;5012090;28;20384;-82
2021/10/05 01:30:59;;;;;;;;;;;;;;;;;;4963163;28;19913;-82
2021/10/05 01:33:25;;;;;;;;;;;;;;;;;;4976561;28;19914;-82
2021/10/05 01:35:50;;;;;;;;;;;;;;;;;;4957030;28;20479;-82
2021/10/05 01:38:16;;;;;;;;;;;;;;;;;;4988143;28;19918;-83
2021/10/05 01:40:41;;;;;;;;;;;;;;;;;;4973407;28;20005;-82
2021/10/05 01:43:06;;;;;;;;;;;;;;;;;;4972577;28;19925;-82
2021/10/05 01:45:32;;;;;;;;;;;;;;;;;;4990487;28;19965;-82
2021/10/05 01:47:57;;;;;;;;;;;;;;;;;;4976422;28;20020;-82
2021/10/05 01:50:23;;;;;;;;;;;;;;;;;;4960107;28;20286;-82
2021/10/05 01:52:49;;;;;;;;;;;;;;;;;;4975199;28;19922;-82
2021/10/05 01:55:16;;;;;;;;;;;;;;;;;;4989036;28;20315;-82
2021/10/05 01:57:41;;;;;;;;;;;;;;;;;;4973673;28;20004;-82
2021/10/05 02:00:07;;;;;;;;;;;;;;;;;;4960033;28;20008;-82
2021/10/05 02:02:32;;;;;;;;;;;;;;;;;;4959965;28;19917;-82
2021/10/05 02:04:57;;;;;;;;;;;;;;;;;;4960152;28;19914;-82
2021/10/05 02:07:23;;;;;;;;;;;;;;;;;;4959609;28;19917;-83
2021/10/05 02:09:48;;;;;;;;;;;;;;;;;;4961018;28;20301;-82
2021/10/05 02:12:17;;;;;;;;;;;;;;;;;;4994703;28;19920;-82
2021/10/05 02:14:43;;;;;;;;;;;;;;;;;;4989405;28;19972;-82
2021/10/05 02:17:08;;;;;;;;;;;;;;;;;;4960017;28;19913;-82
2021/10/05 02:19:34;;;;;;;;;;;;;;;;;;4959428;28;19914;-82
2021/10/05 02:22:00;;;;;;;;;;;;;;;;;;4975895;28;19913;-82
2021/10/05 02:26:54;;;;;;;;;;;;;;;;;;4975154;28;19921;-82
2021/10/05 02:29:19;;;;;;;;;;;;;;;;;;4975682;28;19921;-82
2021/10/05 02:31:44;;;;;;;;;;;;;;;;;;4959466;28;19913;-83
2021/10/05 02:34:10;;;;;;;;;;;;;;;;;;4975730;28;19929;-82
2021/10/05 02:36:35;;;;;;;;;;;;;;;;;;4955994;28;20295;-82
2021/10/05 02:39:00;;;;;;;;;;;;;;;;;;4972293;28;19922;-82
2021/10/05 02:41:26;;;;;;;;;;;;;;;;;;4972131;28;20371;-82
2021/10/05 02:43:52;;;;;;;;;;;;;;;;;;4973131;28;19925;-82
2021/10/05 02:46:17;;;;;;;;;;;;;;;;;;4975897;28;20008;-82
2021/10/05 02:48:42;;;;;;;;;;;;;;;;;;4975583;28;20384;-82
2021/10/05 02:51:08;;;;;;;;;;;;;;;;;;4974871;28;19918;-82
2021/10/05 02:53:33;;;;;;;;;;;;;;;;;;4975481;28;19913;-83
2021/10/05 02:55:58;;;;;;;;;;;;;;;;;;4987188;28;19914;-82
2021/10/05 02:58:24;;;;;;;;;;;;;;;;;;4958782;28;19941;-83
2021/10/05 03:00:49;;;;;;;;;;;;;;;;;;4975352;28;19914;-82
2021/10/05 03:03:14;;;;;;;;;;;;;;;;;;4975913;28;19914;-82
2021/10/05 03:05:39;;;;;;;;;;;;;;;;;;4975844;28;20288;-82
2021/10/05 03:08:05;;;;;;;;;;;;;;;;;;4974923;28;19922;-82
2021/10/05 03:10:31;;;;;;;;;;;;;;;;;;4975219;28;20023;-82
2021/10/05 03:12:56;;;;;;;;;;;;;;;;;;4958551;28;19913;-83
2021/10/05 03:15:21;;;;;;;;;;;;;;;;;;4959144;28;19918;-83
2021/10/05 03:17:47;;;;;;;;;;;;;;;;;;4958489;28;19922;-82
2021/10/05 03:20:12;;;;;;;;;;;;;;;;;;4975089;28;19920;-83
2021/10/05 03:22:37;;;;;;;;;;;;;;;;;;4959216;28;19920;-82
2021/10/05 03:25:03;;;;;;;;;;;;;;;;;;4958983;28;20001;-82
2021/10/05 03:27:28;;;;;;;;;;;;;;;;;;4974818;28;19996;-82
2021/10/05 03:29:54;;;;;;;;;;;;;;;;;;4958878;28;19968;-82
2021/10/05 03:32:19;;;;;;;;;;;;;;;;;;4958831;28;19969;-82
2021/10/05 03:34:44;;;;;;;;;;;;;;;;;;4991333;28;19918;-82
2021/10/05 03:37:11;;;;;;;;;;;;;;;;;;4971765;28;20272;-82
2021/10/05 03:39:37;;;;;;;;;;;;;;;;;;4955484;28;19918;-82
2021/10/05 03:42:02;;;;;;;;;;;;;;;;;;4955089;28;19937;-82
2021/10/05 03:44:28;;;;;;;;;;;;;;;;;;4972742;28;19914;-82
2021/10/05 03:46:53;;;;;;;;;;;;;;;;;;4975309;28;19914;-82
2021/10/05 03:49:19;;;;;;;;;;;;;;;;;;4975152;28;19918;-82
2021/10/05 03:51:46;;;;;;;;;;;;;;;;;;4958834;28;19937;-82
2021/10/05 03:54:11;;;;;;;;;;;;;;;;;;4976046;28;19922;-82
2021/10/05 03:56:36;;;;;;;;;;;;;;;;;;4984385;28;19964;-83
2021/10/05 03:59:02;;;;;;;;;;;;;;;;;;4958377;28;19917;-82
2021/10/05 04:01:27;;;;;;;;;;;;;;;;;;4975845;28;19917;-83
2021/10/05 04:03:52;;;;;;;;;;;;;;;;;;4962008;28;19980;-82
2021/10/05 04:06:18;;;;;;;;;;;;;;;;;;4977809;28;19918;-82
2021/10/05 04:08:43;;;;;;;;;;;;;;;;;;4978010;28;19968;-82
2021/10/05 04:11:09;;;;;;;;;;;;;;;;;;4961131;28;20737;-82
2021/10/05 04:13:34;;;;;;;;;;;;;;;;;;4961570;28;19925;-82
2021/10/05 04:15:59;;;;;;;;;;;;;;;;;;4961951;28;19969;-82
2021/10/05 04:18:25;;;;;;;;;;;;;;;;;;4961536;28;20396;-82
2021/10/05 04:20:50;;;;;;;;;;;;;;;;;;4961600;28;20024;-82
2021/10/05 04:23:15;;;;;;;;;;;;;;;;;;4978126;28;19998;-82
2021/10/05 04:25:41;;;;;;;;;;;;;;;;;;4961546;28;20280;-82
2021/10/05 04:28:06;;;;;;;;;;;;;;;;;;4977885;28;20004;-83
2021/10/05 04:30:32;;;;;;;;;;;;;;;;;;4961881;28;19960;-82
2021/10/05 04:32:57;;;;;;;;;;;;;;;;;;4977860;28;19987;-82
2021/10/05 04:35:22;;;;;;;;;;;;;;;;;;4993915;28;20376;-82
2021/10/05 04:37:48;;;;;;;;;;;;;;;;;;4977249;28;19917;-82
2021/10/05 04:40:13;;;;;;;;;;;;;;;;;;5006343;28;20021;-82
2021/10/05 04:42:39;;;;;;;;;;;;;;;;;;5006520;28;19918;-82
2021/10/05 04:45:05;;;;;;;;;;;;;;;;;;4974463;28;19918;-82
2021/10/05 04:47:30;;;;;;;;;;;;;;;;;;4974427;28;19914;-82
2021/10/05 04:49:55;;;;;;;;;;;;;;;;;;4990414;28;19953;-82
2021/10/05 04:52:21;;;;;;;;;;;;;;;;;;4974067;28;19969;-82
2021/10/05 04:54:46;;;;;;;;;;;;;;;;;;4982745;28;19924;-82
2021/10/05 04:57:11;;;;;;;;;;;;;;;;;;4966499;28;19953;-82
2021/10/05 04:59:37;;;;;;;;;;;;;;;;;;4977198;28;20029;-82
2021/10/05 05:02:02;;;;;;;;;;;;;;;;;;4961141;28;19960;-82
2021/10/05 05:04:29;;;;;;;;;;;;;;;;;;4961377;28;20288;-84
2021/10/05 05:06:54;;;;;;;;;;;;;;;;;;4977429;28;19965;-84
2021/10/05 05:09:19;;;;;;;;;;;;;;;;;;4958567;28;19922;-82
2021/10/05 05:11:45;;;;;;;;;;;;;;;;;;4973979;28;20296;-83
2021/10/05 05:14:11;;;;;;;;;;;;;;;;;;4958219;28;19933;-83
2021/10/05 05:16:37;;;;;;;;;;;;;;;;;;4960922;28;19976;-83
2021/10/05 05:19:03;;;;;;;;;;;;;;;;;;4961163;28;19913;-87
2021/10/05 05:21:29;;;;;;;;;;;;;;;;;;4961653;28;20337;-87
2021/10/05 05:23:55;;;;;;;;;;;;;;;;;;4961246;28;19953;-87
2021/10/05 05:26:21;;;;;;;;;;;;;;;;;;4960666;28;19922;-87
2021/10/05 05:28:47;;;;;;;;;;;;;;;;;;4977470;28;20005;-88
2021/10/05 05:31:14;;;;;;;;;;;;;;;;;;4960989;28;19921;-87
2021/10/05 05:33:41;;;;;;;;;;;;;;;;;;4961155;28;19952;-87
2021/10/05 05:36:06;;;;;;;;;;;;;;;;;;4967466;28;19917;-87
2021/10/05 05:38:32;;;;;;;;;;;;;;;;;;4993240;28;20049;-87
2021/10/05 05:40:58;;;;;;;;;;;;;;;;;;4993661;28;19924;-87
2021/10/05 05:43:24;;;;;;;;;;;;;;;;;;4976989;28;19936;-87
2021/10/05 05:45:51;;;;;;;;;;;;;;;;;;4977020;28;19921;-87
2021/10/05 05:48:17;;;;;;;;;;;;;;;;;;4977203;28;20323;-87
2021/10/05 05:50:45;;;;;;;;;;;;;;;;;;4993176;28;20371;-86
2021/10/05 05:53:10;;;;;;;;;;;;;;;;;;4976220;28;19914;-82
2021/10/05 05:55:36;;;;;;;;;;;;;;;;;;4992253;28;19925;-83
2021/10/05 05:58:10;;;;;;;;;;;;;;;;;;4960029;28;19914;-82
2021/10/05 06:00:36;;;;;;;;;;;;;;;;;;4975779;28;19922;-82
2021/10/05 06:03:01;;;;;;;;;;;;;;;;;;4975481;28;19918;-83
2021/10/05 06:05:26;;;;;;;;;;;;;;;;;;4975832;28;19918;-83
2021/10/05 06:07:52;;;;;;;;;;;;;;;;;;4975961;28;20284;-83
2021/10/05 06:10:17;;;;;;;;;;;;;;;;;;4959747;28;19921;-82
2021/10/05 06:12:42;;;;;;;;;;;;;;;;;;4975596;28;19921;-82
2021/10/05 06:15:09;;;;;;;;;;;;;;;;;;4975987;28;20368;-83
2021/10/05 06:17:41;;;;;;;;;;;;;;;;;;4975711;28;19977;-83
2021/10/05 06:20:12;;;;;;;;;;;;;;;;;;4976228;28;19967;-83
2021/10/05 06:22:38;;;;;;;;;;;;;;;;;;4975969;28;20008;-82
2021/10/05 06:25:04;;;;;;;;;;;;;;;;;;4975179;28;19965;-82
2021/10/05 06:27:29;;;;;;;;;;;;;;;;;;4975673;28;20004;-83
2021/10/05 06:29:56;;;;;;;;;;;;;;;;;;4975594;28;20449;-82
2021/10/05 06:32:22;;;;;;;;;;;;;;;;;;4959283;28;19917;-82
2021/10/05 06:34:47;;;;;;;;;;;;;;;;;;4974795;28;20623;-83
2021/10/05 06:37:12;;;;;;;;;;;;;;;;;;4974748;28;20008;-82
2021/10/05 06:39:38;;;;;;;;;;;;;;;;;;4974323;28;19925;-83
2021/10/05 06:42:04;;;;;;;;;;;;;;;;;;4958378;28;19918;-82
2021/10/05 06:44:29;;;;;;;;;;;;;;;;;;4990545;28;19973;-82
2021/10/05 06:46:54;;;;;;;;;;;;;;;;;;4959105;28;19917;-82
2021/10/05 06:49:19;;;;;;;;;;;;;;;;;;4973940;28;19918;-82
2021/10/05 06:51:45;;;;;;;;;;;;;;;;;;4990862;28;19925;-82
2021/10/05 06:54:10;;;;;;;;;;;;;;;;;;4959292;28;19973;-82
2021/10/05 06:56:36;;;;;;;;;;;;;;;;;;5001966;28;19917;-82
2021/10/05 06:59:01;;;;;;;;;;;;;;;;;;4991491;28;19980;-82
2021/10/05 07:01:26;;;;;;;;;;;;;;;;;;4991008;28;19920;-82
2021/10/05 07:03:52;;;;;;;;;;;;;;;;;;4959183;28;19913;-83
2021/10/05 07:06:17;;;;;;;;;;;;;;;;;;4975540;28;20376;-82
2021/10/05 07:08:43;;;;;;;;;;;;;;;;;;4974460;28;20013;-82
2021/10/05 07:11:08;;;;;;;;;;;;;;;;;;4975169;28;20380;-83
2021/10/05 07:13:34;;;;;;;;;;;;;;;;;;4975138;28;19921;-83
2021/10/05 07:15:59;;;;;;;;;;;;;;;;;;4975002;28;19921;-83
2021/10/05 07:18:24;;;;;;;;;;;;;;;;;;4974541;28;19917;-82
2021/10/05 07:20:50;;;;;;;;;;;;;;;;;;4959331;28;19914;-82
2021/10/05 07:23:15;;;;;;;;;;;;;;;;;;4958828;28;20392;-82
2021/10/05 07:25:40;;;;;;;;;;;;;;;;;;4958492;28;19921;-82
2021/10/05 07:28:08;;;;;;;;;;;;;;;;;;4990212;28;20407;-82
2021/10/05 07:30:33;;;;;;;;;;;;;;;;;;4991139;28;19925;-82
2021/10/05 07:33:01;;;;;;;;;;;;;;;;;;4958352;28;19960;-81
2021/10/05 07:35:26;;;;;;;;;;;;;;;;;;5007900;28;19944;-81
2021/10/05 07:37:52;;;;;;;;;;;;;;;;;;5013760;28;20410;-82
2021/10/05 07:40:20;;;;;;;;;;;;;;;;;;4998050;28;20298;-82
2021/10/05 07:42:46;;;;;;;;;;;;;;;;;;4998241;28;20697;-81
2021/10/05 07:45:12;;;;;;;;;;;;;;;;;;4982169;28;19917;-81
2021/10/05 07:47:37;;;;;;;;;;;;;;;;;;4981662;28;19913;-81
2021/10/05 07:50:03;;;;;;;;;;;;;;;;;;5010568;28;20411;-81
2021/10/05 07:52:28;;;;;;;;;;;;;;;;;;4994487;28;19918;-82
2021/10/05 07:54:53;;;;;;;;;;;;;;;;;;4994630;28;20257;-83
2021/10/05 07:57:18;;;;;;;;;;;;;;;;;;4994694;28;19921;-82
2021/10/05 07:59:45;;;;;;;;;;;;;;;;;;4978344;28;19917;-86
2021/10/05 08:02:10;;;;;;;;;;;;;;;;;;4962426;28;19929;-84
2021/10/05 08:04:36;;;;;;;;;;;;;;;;;;4962026;28;19921;-83
2021/10/05 08:07:04;;;;;;;;;;;;;;;;;;4961583;28;22881;-83
2021/10/05 08:09:29;;;;;;;;;;;;;;;;;;4993880;28;19914;-82
2021/10/05 08:11:54;;;;;;;;;;;;;;;;;;4961381;28;19922;-83
2021/10/05 08:14:20;;;;;;;;;;;;;;;;;;4961668;28;19956;-82
2021/10/05 08:16:46;;;;;;;;;;;;;;;;;;4959292;28;19988;-82
2021/10/05 08:19:12;;;;;;;;;;;;;;;;;;4958053;28;19972;-82
2021/10/05 08:21:37;;;;;;;;;;;;;;;;;;4969091;28;19973;-83
2021/10/05 08:24:02;;;;;;;;;;;;;;;;;;4997708;28;19922;-83
2021/10/05 08:26:28;;;;;;;;;;;;;;;;;;4995555;28;19949;-83
2021/10/05 08:28:53;;;;;;;;;;;;;;;;;;4993632;28;19960;-83
2021/10/05 08:31:19;;;;;;;;;;;;;;;;;;4976580;28;19917;-86
2021/10/05 08:33:46;;;;;;;;;;;;;;;;;;4978808;28;19925;-88
2021/10/05 08:36:19;;;;;;;;;;;;;;;;;;4962108;28;19921;-90
2021/10/05 08:38:44;;;;;;;;;;;;;;;;;;4962363;28;20339;-89
2021/10/05 08:41:10;;;;;;;;;;;;;;;;;;4962610;28;19914;-91
2021/10/05 08:43:36;;;;;;;;;;;;;;;;;;4978689;28;19922;-89
2021/10/05 08:46:03;;;;;;;;;;;;;;;;;;4962260;28;20270;-90
2021/10/05 08:48:33;;;;;;;;;;;;;;;;;;4962601;28;19926;-90
2021/10/05 08:50:59;;;;;;;;;;;;;;;;;;4962437;28;19920;-92
2021/10/05 08:53:26;;;;;;;;;;;;;;;;;;4961241;28;19914;-83
2021/10/05 08:55:52;;;;;;;;;;;;;;;;;;4961277;28;20019;-83
2021/10/05 08:58:18;;;;;;;;;;;;;;;;;;4961422;28;20412;-86
2021/10/05 09:00:43;;;;;;;;;;;;;;;;;;4961519;28;19913;-86
2021/10/05 09:03:10;;;;;;;;;;;;;;;;;;4961939;28;19913;-87
2021/10/05 09:05:40;;;;;;;;;;;;;;;;;;4978269;28;19913;-86
2021/10/05 09:08:09;;;;;;;;;;;;;;;;;;4961799;28;19914;-88
2021/10/05 09:10:37;;;;;;;;;;;;;;;;;;4962205;28;19957;-90
2021/10/05 09:13:04;;;;;;;;;;;;;;;;;;4962182;28;19968;-90
2021/10/05 09:15:32;;;;;;;;;;;;;;;;;;4961791;28;19988;-84
2021/10/05 09:17:58;;;;;;;;;;;;;;;;;;4976821;28;19922;-84
2021/10/05 09:20:24;;;;;;;;;;;;;;;;;;4976296;28;19985;-82
2021/10/05 09:22:56;;;;;;;;;;;;;;;;;;4990961;28;19930;-83
2021/10/05 09:25:29;;;;;;;;;;;;;;;;;;4972084;28;19918;-85
2021/10/05 09:27:54;;;;;;;;;;;;;;;;;;4992201;28;20029;-85
2021/10/05 09:30:20;;;;;;;;;;;;;;;;;;4976361;28;19914;-86
2021/10/05 09:32:59;;;;;;;;;;;;;;;;;;4989310;28;19925;-85
2021/10/05 09:35:26;;;;;;;;;;;;;;;;;;5022477;28;20008;-86
2021/10/05 09:37:53;;;;;;;;;;;;;;;;;;4979565;28;19997;-85
2021/10/05 09:40:19;;;;;;;;;;;;;;;;;;4979759;28;19963;-85
2021/10/05 09:42:47;;;;;;;;;;;;;;;;;;4979722;28;19914;-86
2021/10/05 09:45:15;;;;;;;;;;;;;;;;;;4961704;28;19921;-87
2021/10/05 09:47:44;;;;;;;;;;;;;;;;;;4979464;28;19918;-89
2021/10/05 09:50:33;;;;;;;;;;;;;;;;;;4974259;28;19918;-90
2021/10/05 09:53:06;;;;;;;;;;;;;;;;;;4989695;28;19918;-86
2021/10/05 09:55:33;;;;;;;;;;;;;;;;;;4976250;28;19922;-86
2021/10/05 09:57:59;;;;;;;;;;;;;;;;;;4960053;28;19981;-88
2021/10/05 10:00:26;;;;;;;;;;;;;;;;;;4960545;28;19917;-89
2021/10/05 10:02:52;;;;;;;;;;;;;;;;;;4960179;28;20373;-82
2021/10/05 10:05:18;;;;;;;;;;;;;;;;;;4958882;28;19928;-80
2021/10/05 10:07:44;;;;;;;;;;;;;;;;;;4959837;28;19967;-80
2021/10/05 10:10:10;;;;;;;;;;;;;;;;;;4975762;28;20403;-80
2021/10/05 10:12:45;;;;;;;;;;;;;;;;;;4991450;28;19940;-80
2021/10/05 10:15:11;;;;;;;;;;;;;;;;;;4959674;28;20422;-81
2021/10/05 10:17:37;;;;;;;;;;;;;;;;;;4952090;28;19925;-80
2021/10/05 10:20:02;;;;;;;;;;;;;;;;;;4975223;28;19918;-79
2021/10/05 10:22:28;;;;;;;;;;;;;;;;;;4960339;28;20407;-79
2021/10/05 10:24:55;;;;;;;;;;;;;;;;;;4992109;28;20384;-80
2021/10/05 10:27:20;;;;;;;;;;;;;;;;;;4972674;28;21457;-77
2021/10/05 10:29:46;;;;;;;;;;;;;;;;;;4968768;28;19926;-80
2021/10/05 10:32:12;;;;;;;;;;;;;;;;;;4946661;28;19918;-77
2021/10/05 10:34:39;;;;;;;;;;;;;;;;;;4997046;28;19950;-77
2021/10/05 10:37:15;;;;;;;;;;;;;;;;;;4995779;28;19994;-77
2021/10/05 10:39:40;;;;;;;;;;;;;;;;;;5010857;28;19936;-77
2021/10/05 10:42:06;;;;;;;;;;;;;;;;;;5009253;28;20380;-78
2021/10/05 10:44:38;;;;;;;;;;;;;;;;;;4974460;28;19981;-80
2021/10/05 10:47:23;;;;;;;;;;;;;;;;;;4991149;28;19913;-80
2021/10/05 10:49:57;;;;;;;;;;;;;;;;;;4986256;28;19918;-80
2021/10/05 10:52:23;;;;;;;;;;;;;;;;;;4974837;28;20402;-81
2021/10/05 10:54:55;;;;;;;;;;;;;;;;;;4974800;28;19920;-80
2021/10/05 10:57:30;;;;;;;;;;;;;;;;;;4984712;28;19937;-80
2021/10/05 10:59:55;;;;;;;;;;;;;;;;;;4967578;28;19937;-78
2021/10/05 11:02:22;;;;;;;;;;;;;;;;;;4973623;28;19918;-80
2021/10/05 11:04:47;;;;;;;;;;;;;;;;;;4958887;28;19977;-79
2021/10/05 11:07:13;;;;;;;;;;;;;;;;;;4972049;28;19949;-79
2021/10/05 11:09:38;;;;;;;;;;;;;;;;;;4974064;28;19940;-78
2021/10/05 11:12:06;;;;;;;;;;;;;;;;;;4992415;28;20434;-79
2021/10/05 11:14:33;;;;;;;;;;;;;;;;;;4984122;28;19950;-79
2021/10/05 11:17:08;;;;;;;;;;;;;;;;;;4993066;28;19984;-79
2021/10/05 11:19:34;;;;;;;;;;;;;;;;;;4983873;28;19920;-80
2021/10/05 11:22:00;;;;;;;;;;;;;;;;;;4978616;28;19929;-77
2021/10/05 11:24:40;;;;;;;;;;;;;;;;;;4978558;28;19918;-80
2021/10/05 11:27:21;;;;;;;;;;;;;;;;;;4985074;28;19927;-77
2021/10/05 11:29:47;;;;;;;;;;;;;;;;;;4990969;28;19929;-79
2021/10/05 11:32:15;;;;;;;;;;;;;;;;;;4991042;28;19918;-81
2021/10/05 11:35:01;;;;;;;;;;;;;;;;;;5012065;28;20288;-79
2021/10/05 11:37:37;;;;;;;;;;;;;;;;;;4990528;28;19918;-77
2021/10/05 11:40:02;;;;;;;;;;;;;;;;;;4984056;28;20447;-80
2021/10/05 11:42:28;;;;;;;;;;;;;;;;;;4991164;28;19918;-80
2021/10/05 11:44:58;;;;;;;;;;;;;;;;;;4978028;28;20366;-80
2021/10/05 11:47:24;;;;;;;;;;;;;;;;;;5011266;28;19918;-77
2021/10/05 11:50:03;;;;;;;;;;;;;;;;;;4978655;28;19984;-77
2021/10/05 11:52:29;;;;;;;;;;;;;;;;;;4979607;28;19918;-79
2021/10/05 11:54:54;;;;;;;;;;;;;;;;;;4977562;28;20377;-79
2021/10/05 11:57:21;;;;;;;;;;;;;;;;;;4978212;28;19914;-80
2021/10/05 11:59:46;;;;;;;;;;;;;;;;;;4962056;28;19973;-81
2021/10/05 12:02:12;;;;;;;;;;;;;;;;;;4962194;28;19918;-80
2021/10/05 12:04:38;;;;;;;;;;;;;;;;;;4978445;28;19918;-80
2021/10/05 12:07:07;;;;;;;;;;;;;;;;;;4977130;28;19918;-81
2021/10/05 12:09:34;;;;;;;;;;;;;;;;;;4977201;28;20265;-81
2021/10/05 12:12:04;;;;;;;;;;;;;;;;;;4994257;28;19914;-81
2021/10/05 12:14:30;;;;;;;;;;;;;;;;;;4978583;28;19964;-82
2021/10/05 12:17:00;;;;;;;;;;;;;;;;;;4961907;28;19914;-82
2021/10/05 12:19:35;;;;;;;;;;;;;;;;;;4962115;28;19914;-81
2021/10/05 12:22:02;;;;;;;;;;;;;;;;;;4977879;28;19914;-82
2021/10/05 12:24:34;;;;;;;;;;;;;;;;;;4961213;28;19925;-82
2021/10/05 12:26:59;;;;;;;;;;;;;;;;;;4977588;28;19914;-82
2021/10/05 12:29:26;;;;;;;;;;;;;;;;;;4961616;28;19922;-81
2021/10/05 12:31:53;;;;;;;;;;;;;;;;;;4978148;28;20352;-81
2021/10/05 12:34:22;;;;;;;;;;;;;;;;;;4977948;28;19929;-83
2021/10/05 12:36:56;;;;;;;;;;;;;;;;;;4962388;28;19918;-81
2021/10/05 12:39:22;;;;;;;;;;;;;;;;;;4954761;28;19919;-83
2021/10/05 12:41:57;;;;;;;;;;;;;;;;;;4952059;28;20345;-83
2021/10/05 12:44:22;;;;;;;;;;;;;;;;;;4977623;28;19921;-84
2021/10/05 12:46:56;;;;;;;;;;;;;;;;;;4977879;28;19918;-83
2021/10/05 12:49:21;;;;;;;;;;;;;;;;;;4977829;28;19949;-83
2021/10/05 12:51:47;;;;;;;;;;;;;;;;;;4968470;28;19941;-83
2021/10/05 12:54:12;;;;;;;;;;;;;;;;;;4942312;28;20020;-83
2021/10/05 12:56:37;;;;;;;;;;;;;;;;;;4951309;28;19965;-84
2021/10/05 12:59:03;;;;;;;;;;;;;;;;;;4960845;28;19922;-83
2021/10/05 13:01:30;;;;;;;;;;;;;;;;;;4961582;28;19918;-83
2021/10/05 13:03:56;;;;;;;;;;;;;;;;;;4993910;28;19921;-84
2021/10/05 13:06:21;;;;;;;;;;;;;;;;;;4976625;28;19922;-84
2021/10/05 13:08:47;;;;;;;;;;;;;;;;;;4960976;28;19914;-84
2021/10/05 13:11:12;;;;;;;;;;;;;;;;;;4960506;28;19918;-83
2021/10/05 13:13:38;;;;;;;;;;;;;;;;;;4960776;28;19917;-85
2021/10/05 13:16:03;;;;;;;;;;;;;;;;;;4976741;28;20364;-84
2021/10/05 13:18:29;;;;;;;;;;;;;;;;;;4977216;28;19920;-85
2021/10/05 13:20:54;;;;;;;;;;;;;;;;;;4960818;28;19942;-84
2021/10/05 13:23:20;;;;;;;;;;;;;;;;;;4960458;28;19917;-84
2021/10/05 13:25:47;;;;;;;;;;;;;;;;;;4960568;28;20380;-83
2021/10/05 13:28:12;;;;;;;;;;;;;;;;;;4957454;28;19922;-84
2021/10/05 13:30:38;;;;;;;;;;;;;;;;;;4941670;28;20357;-84
2021/10/05 13:33:04;;;;;;;;;;;;;;;;;;4957389;28;19914;-83
2021/10/05 13:35:29;;;;;;;;;;;;;;;;;;4940485;28;19921;-83
2021/10/05 13:37:55;;;;;;;;;;;;;;;;;;4973109;28;20317;-84
2021/10/05 13:40:20;;;;;;;;;;;;;;;;;;4941798;28;20384;-85
2021/10/05 13:42:47;;;;;;;;;;;;;;;;;;4956114;28;19922;-84
2021/10/05 13:45:14;;;;;;;;;;;;;;;;;;4992379;28;19917;-84
2021/10/05 13:47:40;;;;;;;;;;;;;;;;;;4960534;28;19914;-84
2021/10/05 13:50:05;;;;;;;;;;;;;;;;;;4960413;28;19917;-85
2021/10/05 13:52:30;;;;;;;;;;;;;;;;;;4960269;28;19933;-84
2021/10/05 13:54:56;;;;;;;;;;;;;;;;;;4960138;28;19918;-84
2021/10/05 13:57:22;;;;;;;;;;;;;;;;;;4960228;28;20022;-85
2021/10/05 13:59:48;;;;;;;;;;;;;;;;;;4960200;28;19917;-85
2021/10/05 14:02:13;;;;;;;;;;;;;;;;;;4960407;28;19918;-83
2021/10/05 14:04:40;;;;;;;;;;;;;;;;;;4958752;28;19921;-84
2021/10/05 14:07:05;;;;;;;;;;;;;;;;;;4975973;28;19969;-84
2021/10/05 14:09:31;;;;;;;;;;;;;;;;;;4959212;28;19964;-84
2021/10/05 14:11:56;;;;;;;;;;;;;;;;;;4959553;28;19961;-84
2021/10/05 14:14:21;;;;;;;;;;;;;;;;;;4959861;28;20387;-84
2021/10/05 14:16:49;;;;;;;;;;;;;;;;;;4976806;28;19913;-86
2021/10/05 14:19:15;;;;;;;;;;;;;;;;;;4960136;28;20283;-87
2021/10/05 14:21:42;;;;;;;;;;;;;;;;;;4960828;28;19924;-87
2021/10/05 14:24:07;;;;;;;;;;;;;;;;;;4959584;28;19924;-87
2021/10/05 14:26:33;;;;;;;;;;;;;;;;;;4960274;28;19917;-86
2021/10/05 14:28:58;;;;;;;;;;;;;;;;;;4960220;28;19926;-86
2021/10/05 14:31:24;;;;;;;;;;;;;;;;;;4960452;28;20360;-88
2021/10/05 14:33:50;;;;;;;;;;;;;;;;;;4959085;28;19968;-86
2021/10/05 14:36:17;;;;;;;;;;;;;;;;;;4940998;28;20433;-86
2021/10/05 14:38:51;;;;;;;;;;;;;;;;;;4940859;28;19920;-86
2021/10/05 14:41:17;;;;;;;;;;;;;;;;;;4941073;28;19918;-85
2021/10/05 14:43:44;;;;;;;;;;;;;;;;;;4940905;28;19918;-86
2021/10/05 14:46:09;;;;;;;;;;;;;;;;;;4958504;28;19942;-85
2021/10/05 14:48:36;;;;;;;;;;;;;;;;;;4959038;28;19964;-85
2021/10/05 14:51:01;;;;;;;;;;;;;;;;;;4959572;28;19969;-85
2021/10/05 14:53:27;;;;;;;;;;;;;;;;;;4957355;28;19921;-84
2021/10/05 14:55:52;;;;;;;;;;;;;;;;;;4958775;28;19957;-85
2021/10/05 14:58:17;;;;;;;;;;;;;;;;;;4974684;28;19925;-86
2021/10/05 15:00:43;;;;;;;;;;;;;;;;;;4961398;28;19940;-86
2021/10/05 15:03:08;;;;;;;;;;;;;;;;;;4964317;28;20323;-86
2021/10/05 15:05:33;;;;;;;;;;;;;;;;;;4987428;28;19918;-87
2021/10/05 15:07:59;;;;;;;;;;;;;;;;;;4970437;28;20475;-87
2021/10/05 15:10:25;;;;;;;;;;;;;;;;;;4988101;28;20272;-88
2021/10/05 15:12:51;;;;;;;;;;;;;;;;;;4974322;28;20008;-87
2021/10/05 15:15:18;;;;;;;;;;;;;;;;;;4991909;28;20012;-87
2021/10/05 15:17:43;;;;;;;;;;;;;;;;;;4991217;28;20327;-89
2021/10/05 15:20:09;;;;;;;;;;;;;;;;;;4991972;28;19968;-88
2021/10/05 15:22:36;;;;;;;;;;;;;;;;;;4980880;28;19922;-88
2021/10/05 15:25:02;;;;;;;;;;;;;;;;;;4959727;28;19922;-87
2021/10/05 15:27:28;;;;;;;;;;;;;;;;;;4959803;28;19984;-88
2021/10/05 15:29:55;;;;;;;;;;;;;;;;;;4959702;28;19922;-87
2021/10/05 15:32:20;;;;;;;;;;;;;;;;;;4959379;28;19913;-87
2021/10/05 15:34:46;;;;;;;;;;;;;;;;;;4959519;28;19917;-88
2021/10/05 15:37:12;;;;;;;;;;;;;;;;;;4960084;28;19918;-88
2021/10/05 15:39:38;;;;;;;;;;;;;;;;;;4958356;28;20362;-88
2021/10/05 15:42:05;;;;;;;;;;;;;;;;;;4959366;28;19914;-88
2021/10/05 15:44:31;;;;;;;;;;;;;;;;;;4960183;28;19914;-88
2021/10/05 15:46:56;;;;;;;;;;;;;;;;;;4959651;28;19925;-89
2021/10/05 15:49:23;;;;;;;;;;;;;;;;;;4960234;28;20008;-88
2021/10/05 15:51:57;;;;;;;;;;;;;;;;;;4952415;28;19929;-89
2021/10/05 15:54:22;;;;;;;;;;;;;;;;;;4959574;28;19918;-88
2021/10/05 15:56:48;;;;;;;;;;;;;;;;;;4959094;28;19926;-89
2021/10/05 15:59:14;;;;;;;;;;;;;;;;;;4993883;28;20519;-89
2021/10/05 16:01:39;;;;;;;;;;;;;;;;;;4991618;28;19914;-89
2021/10/05 16:04:05;;;;;;;;;;;;;;;;;;4978570;28;20304;-89
2021/10/05 16:06:30;;;;;;;;;;;;;;;;;;4978924;28;19914;-90
2021/10/05 16:08:55;;;;;;;;;;;;;;;;;;4994271;28;19955;-89
2021/10/05 16:11:20;;;;;;;;;;;;;;;;;;4962635;28;20004;-89
2021/10/05 16:13:47;;;;;;;;;;;;;;;;;;4961311;28;20292;-86
2021/10/05 16:16:13;;;;;;;;;;;;;;;;;;4960937;28;19918;-85
2021/10/05 16:18:41;;;;;;;;;;;;;;;;;;4961775;28;20403;-85
2021/10/05 16:21:08;;;;;;;;;;;;;;;;;;4962667;28;20696;-85
2021/10/05 16:23:39;;;;;;;;;;;;;;;;;;4962880;28;19968;-89
2021/10/05 16:26:05;;;;;;;;;;;;;;;;;;4982075;28;19918;-91
2021/10/05 16:28:30;;;;;;;;;;;;;;;;;;4979221;28;19922;-90
2021/10/05 16:30:55;;;;;;;;;;;;;;;;;;4979209;28;19921;-89
2021/10/05 16:33:22;;;;;;;;;;;;;;;;;;4979018;28;19922;-89
2021/10/05 16:35:51;;;;;;;;;;;;;;;;;;4979314;28;19914;-89
2021/10/05 16:38:19;;;;;;;;;;;;;;;;;;4979001;28;19918;-89
2021/10/05 16:40:45;;;;;;;;;;;;;;;;;;4978888;28;19914;-86
2021/10/05 16:43:10;;;;;;;;;;;;;;;;;;4977268;28;19925;-87